NCAR-RAP Real-Time Weather Data

Output produced by METARs form (17 December 2018  08:13 UTC)
found at http://weather.rap.ucar.edu/surface/
 
RJAA 170800Z 18002KT 9999 MIFG FEW020 07/07 Q1003 NOSIG RMK 1CU020 A2964
RJAA 170730Z 21002KT 9999 FEW020 10/08 Q1003 NOSIG RMK 1CU020 A2964
RJAA 170700Z 18003KT 9999 FEW020 10/08 Q1003 NOSIG RMK 1CU020 A2964
RJAA 170630Z 09003KT 9999 FEW020 11/08 Q1003 NOSIG RMK 1CU020 A2963
RJAA 170600Z 11003KT 060V170 9999 FEW020 11/08 Q1003 NOSIG RMK 1CU020 A2962
RJAA 170530Z 08003KT 030V120 9999 FEW020 11/07 Q1002 NOSIG RMK 1CU020 A2961
RJAA 170500Z 09003KT 030V180 9999 FEW020 10/07 Q1002 NOSIG RMK 1CU020 A2961
RJAA 170430Z 35003KT 320V020 9999 FEW020 BKN100 10/07 Q1002 NOSIG RMK 1CU020 6AC100 A2961
RJAA 170400Z 34006KT 9999 FEW020 BKN100 09/07 Q1002 NOSIG RMK 1CU020 7AC100 A2961
RJAA 170330Z 33006KT 8000 -SHRA FEW020 BKN100 08/06 Q1003 NOSIG RMK 1CU020 7AC100 A2962
RJAA 170300Z 34008KT 8000 -SHRA FEW015 BKN100 07/06 Q1003 NOSIG RMK 1CU015 7AC100 A2964
RJAA 170230Z 34009KT 7000 -SHRA FEW009 SCT080 BKN110 06/05 Q1004 NOSIG RMK 1ST009 3AC080 7AC110 A2965 P/FR
RJAA 170200Z 33009KT 4000 BR FEW004 OVC080 05/05 Q1005 TEMPO FEW003 BKN005
RJAA 170130Z VRB02KT 2800 -RA BR FEW002 OVC070 06/06 Q1006 BECMG 30005KT
RJAA 170100Z VRB01KT 2800 R34L/P2000N R34R/1100VP2000U -RA BR FEW010 OVC070 06/06 Q1006 BECMG 30005KT RMK 1CU010 8AS070 A2973
RJAA 170046Z VRB02KT 2800 R34L/P2000N R34R/P2000N -RA BR FEW010 OVC070 06/05 Q1007 RMK 1CU010 8AS070 A2975
RJAA 170030Z VRB01KT 3500 -RA BR FEW010 OVC070 06/06 Q1007 BECMG 30005KT
RJAA 170020Z VRB02KT 4000 -RA BR FEW010 BKN070 06/05 Q1007 RMK 1CU010 7AS070 A2976
RJAA 170000Z 14002KT 6000 -RA BR FEW025 OVC080 05/05 Q1008 BECMG 30005KT 4000 -RA BR
RJAA 162330Z 00000KT 9999 -RA FEW025 OVC090 05/04 Q1008 TEMPO 4000 -RA BR
RJAA 162300Z 35003KT 8000 -RA FEW015 SCT030 OVC090 04/03 Q1008 TEMPO 4000 -RA BR RMK 1CU015 3SC030 8AS090 A2979
RJAA 162230Z 28004KT 260V320 8000 -RA FEW015 BKN030 04/03 Q1009 TEMPO 4000 -RA BR RMK 1CU015 7SC030 A2982
RJAA 162200Z VRB02KT 9000 -RA FEW015 BKN040 04/02 Q1009 NOSIG RMK 1CU015 7SC040 A2981
RJAA 162130Z 32003KT 9999 -RA FEW015 BKN050 03/01 Q1010 NOSIG RMK 1CU015 7SC050 A2983
RJAA 162100Z 33004KT 9999 -RA FEW015 BKN050 03/01 Q1010 NOSIG RMK 1CU015 7SC050 A2985
RJAA 162030Z 34006KT 9999 -RA FEW015 BKN050 03/01 Q1010 NOSIG RMK 1CU015 7SC050 A2984
RJAA 162000Z VRB01KT 9999 -RA FEW015 OVC070 03/01 Q1010 NOSIG RMK 1CU015 8AS070 A2985
RJAA 161930Z VRB01KT 9999 -RA FEW020 OVC080 04/M01 Q1011 NOSIG RMK 1CU020 8AS080 A2986
RJAA 161900Z 30006KT 9999 -RA FEW020 SCT070 OVC100 04/M02 Q1011 NOSIG RMK 1CU020 3AC070 8AS100 A2987
RJAA 161830Z 29004KT 250V320 9999 FEW020 BKN120 04/M02 Q1011 NOSIG RMK 1CU020 7AC120 A2988
RJAA 161800Z 30003KT 9999 FEW020 BKN150 04/M03 Q1012 NOSIG RMK 1CU020 7AC150 A2989
RJAA 161730Z 31004KT 9999 FEW020 BKN120 04/M02 Q1012 NOSIG RMK 1CU020 7AC120 A2990
RJAA 161700Z 31004KT 9999 FEW020 BKN100 04/M03 Q1012 NOSIG RMK 1CU020 7AC100 A2991
RJAA 161630Z VRB02KT 9999 FEW015 BKN100 03/M02 Q1013 NOSIG RMK 1CU015 7AC100 A2992
RJAA 161600Z 30003KT 9999 FEW015 BKN100 03/M02 Q1013 NOSIG RMK 1CU015 7AC100 A2993
RJAA 161530Z 32005KT 9999 FEW015 BKN100 03/M02 Q1013 NOSIG RMK 1CU015 7AC100 A2993
RJAA 161500Z 33004KT 9999 FEW015 BKN100 BKN/// 03/M01 Q1014 NOSIG
RJAA 161430Z VRB01KT 9999 FEW015 SCT100 BKN/// 03/M00 Q1015 NOSIG
RJAA 161400Z 25002KT 9999 FEW015 BKN100 BKN/// 02/M00 Q1015 NOSIG RMK 1CU015 5AC100 A2999
RJAA 161330Z VRB02KT 9999 FEW015 SCT120 BKN180 03/M01 Q1015 NOSIG RMK 1CU015 3AC120 7AC180 A3000
RJAA 161300Z 33005KT 9999 FEW015 BKN180 02/M01 Q1016 NOSIG RMK 1CU015 7AC180 A3001
RJAA 161230Z 32004KT 9999 FEW015 SCT180 BKN/// 03/M00 Q1016 NOSIG
RJAA 161200Z 34003KT 9999 FEW015 BKN/// 02/M01 Q1017 NOSIG
RJAA 161130Z 32006KT 9999 FEW015 SCT130 BKN/// 03/00 Q1017 NOSIG
RJAA 161100Z VRB01KT 9999 FEW015 BKN130 03/01 Q1017 NOSIG RMK 1CU015 7AC130 A3005
RJAA 161030Z 00000KT 9999 FEW015 BKN130 04/01 Q1018 NOSIG RMK 1CU015 7AC130 A3006
RJAA 161000Z 17002KT 9999 FEW015 BKN060 BKN130 04/01 Q1018 NOSIG RMK 1CU015 5SC060 7AC130 A3007 MOD TURB OBS AT 0949Z 50NM S NARITA BTN FL150 AND FL130 IN DES A321 EVA196
RJAA 160930Z VRB02KT 9999 FEW015 BKN060 04/01 Q1019 NOSIG RMK 1CU015 7SC060 A3009
RJAA 160900Z VRB02KT 9999 FEW015 SCT080 BKN130 04/01 Q1019 NOSIG RMK 1CU015 4AC080 7AC130 A3010
RJAA 160830Z 17003KT 120V270 9999 FEW015 BKN130 04/01 Q1019 BECMG 30005KT
RJAA 160800Z VRB02KT 9999 FEW030 BKN150 05/00 Q1020 BECMG 36005KT
RJAA 160730Z 08004KT 040V110 9999 FEW030 SCT040 BKN150 06/M01 Q1020 BECMG 36005KT
RJAA 160700Z VRB02KT 9999 -RA FEW030 BKN040 05/M00 Q1021 NOSIG RMK 1CU030 7SC040 A3016
RJAA 160630Z 30006KT 270V330 9999 -RA FEW030 BKN045 05/M02 Q1021 NOSIG RMK 1CU030 7SC045 A3016
RJAA 160600Z 31005KT 9999 FEW030 SCT045 BKN060 06/M03 Q1021 NOSIG RMK 1CU030 3SC045 6SC060 A3016
RJAA 160530Z 32006KT 290V350 9999 FEW030 BKN060 BKN180 06/M02 Q1021 NOSIG RMK 1CU030 5SC060 7AC180 A3017
RJAA 160500Z 33008KT 9999 FEW030 BKN060 06/M02 Q1021 NOSIG RMK 1CU030 7SC060 A3018
RJAA 160430Z 33006KT 9999 FEW030 BKN060 07/M01 Q1021 NOSIG RMK 1CU030 7SC060 A3017
RJAA 160400Z 34008KT 310V010 9999 FEW030 BKN060 BKN/// 07/M02 Q1022 NOSIG
RJAA 160330Z 31005KT 280V350 9999 FEW030 BKN060 BKN/// 07/M02 Q1022 NOSIG
RJAA 160300Z 29003KT 210V340 9999 FEW030 BKN/// 08/M00 Q1023 BECMG 18008KT
RJAA 160230Z VRB02KT 9999 FEW030 BKN/// 07/M02 Q1023 BECMG TL0300 18008KT
RJAA 160200Z 30003KT 230V360 9999 FEW030 BKN/// 06/M03 Q1024 BECMG TL0300 18008KT
RJAA 160130Z 29005KT 240V330 9999 FEW030 SCT050 BKN/// 05/M02 Q1025 BECMG TL0200 18008KT
RJAA 160100Z VRB01KT 9999 FEW030 BKN050 BKN/// 05/M02 Q1025 BECMG TL0200 18008KT
RJAA 160030Z 26004KT 220V290 9999 FEW030 BKN045 04/M02 Q1026 BECMG TL0200 18008KT
RJAA 160000Z VRB01KT 9999 FEW030 SCT/// 03/M02 Q1025 NOSIG
RJAA 152330Z 31003KT 9999 FEW030 BKN/// 02/M03 Q1026 NOSIG
RJAA 151330Z 32003KT 9999 FEW030 M02/M03 Q1027 NOSIG RMK 1CU030 A3035
RJAA 151300Z VRB02KT 9999 FEW030 M03/M05 Q1027 NOSIG RMK 1CU030 A3035
RJAA 151230Z VRB02KT 9999 FEW030 M01/M04 Q1027 NOSIG RMK 1CU030 A3035
RJAA 151200Z VRB02KT 9999 FEW030 M01/M03 Q1027 NOSIG RMK 1CU030 A3035
RJAA 151130Z 26003KT 9999 FEW030 M00/M03 Q1028 NOSIG RMK 1CU030 A3036
RJAA 151100Z 27003KT 230V320 9999 FEW030 M01/M04 Q1027 NOSIG RMK 1CU030 A3035
RJAA 151030Z VRB02KT 9999 FEW030 01/M03 Q1027 NOSIG RMK 1CU030 A3034
RJAA 151000Z 03006KT 340V080 9999 FEW030 05/M05 Q1027 NOSIG RMK 1CU030 A3034
RJAA 150930Z 05006KT 010V080 9999 FEW030 06/M05 Q1027 NOSIG RMK 1CU030 A3033
RJAA 150900Z 06004KT 350V100 9999 FEW030 05/M04 Q1026 BECMG 03005KT
RJAA 150830Z 06004KT 010V100 9999 FEW030 06/M05 Q1026 BECMG 03005KT
RJAA 150800Z 07004KT 360V120 9999 FEW030 06/M05 Q1026 BECMG 05005KT RMK 1CU030 A3031
RJAA 150730Z 03005KT 350V060 9999 FEW030 06/M05 Q1026 NOSIG RMK 1CU030 A3030
RJAA 150700Z 03007KT 9999 FEW030 07/M05 Q1025 NOSIG RMK 1CU030 A3029
RJAA 150630Z 01012KT 9999 FEW030 07/M05 Q1025 NOSIG RMK 1CU030 A3028
RJAA 150600Z 01013KT 9999 FEW030 08/M05 Q1025 NOSIG RMK 1CU030 A3028
RJAA 150530Z 35013KT 9999 FEW030 08/M06 Q1025 NOSIG RMK 1CU030 A3028
RJAA 150500Z 32011KT 280V360 9999 FEW030 08/M05 Q1025 NOSIG RMK 1CU030 A3028
RJAA 150430Z 33009KT 290V360 9999 FEW030 08/M05 Q1025 NOSIG RMK 1CU030 A3028
RJAA 150400Z 35010KT 9999 FEW030 08/M05 Q1025 NOSIG RMK 1CU030 A3028
RJAA 150330Z 35009KT 9999 FEW030 07/M05 Q1025 NOSIG RMK 1CU030 A3028
RJAA 150300Z 33008KT 290V010 9999 FEW030 07/M04 Q1025 NOSIG RMK 1CU030 A3028
RJAA 150230Z 01008KT 310V030 9999 FEW030 06/M05 Q1025 NOSIG RMK 1CU030 A3029
RJAA 150200Z 34011KT 310V010 9999 FEW030 07/M04 Q1026 NOSIG RMK 1CU030 A3030
RJAA 150130Z 34011KT 290V010 9999 FEW030 06/M05 Q1026 NOSIG RMK 1CU030 A3031
RJAA 150100Z 36011KT 9999 FEW030 06/M04 Q1026 NOSIG RMK 1CU030 A3032
RJAA 150030Z 36011KT 9999 FEW030 05/M04 Q1026 NOSIG RMK 1CU030 A3032
RJAA 150000Z 36008KT 9999 FEW030 05/M04 Q1026 NOSIG RMK 1CU030 A3032
RJAA 142330Z 36008KT 9999 FEW030 04/M04 Q1026 NOSIG RMK 1CU030 A3031
RJAA 142300Z 36009KT 9999 FEW030 03/M04 Q1026 NOSIG RMK 1CU030 A3031
RJAA 142230Z 01007KT 9999 FEW030 01/M04 Q1025 NOSIG RMK 1CU030 A3029
RJAA 142200Z 02008KT 9999 FEW030 00/M04 Q1025 NOSIG RMK 1CU030 A3028
RJAA 142130Z 01010KT 9999 FEW030 01/M05 Q1025 NOSIG RMK 1CU030 A3027
RJAA 142100Z 03005KT 9999 FEW030 00/M05 Q1024 NOSIG RMK 1CU030 A3026
RJAA 142030Z 36008KT CAVOK 01/M04 Q1024 NOSIG RMK A3025